Gifford, Arkansas
Current Conditions -  °F | °C
As of 6:53 PM on Sunday 21 Dec 2014 (Local Time) from KHOT Reporting Station
Broken Clouds Broken Clouds  
Wind Chill: 44°   Ceiling: 7000
Heat Index: 46°   Visibility: 10mi
Dew Point: 39°   Wind: 5mph
Humidity: 76%   Direction: 100°E
Pressure: 29.93"   Gusts: NA
Location:  34.3189°N, 92.8629°W
Report Text: KHOT 220053Z AUTO 10004KT 10SM SCT042 BKN070 08/04 A2993 RMK AO2 SLP136 T00780039
Loading
Personal Weather Stations






























Interactive Weather Map New forecast layout! Learn more

10-Day Weather Forecast

Advertisements
Track Severe Weather on mobile